Cwmbach, United Kingdom
Current Conditions -  °F | °C
As of 1:50 PM on Sunday 21 Dec 2014 (Local Time) from EGDX Reporting Station
Light Rain Light Rain  
Wind Chill: 50°   Ceiling: 1400
Heat Index: 50°   Visibility: 6mi
Dew Point: 50°   Wind: 23mph
Humidity: 100%   Direction: 260°W
Pressure: 30.27"   Gusts: NA
Location:  51.71°N, 3.41°W
Report Text: EGDX 211350Z AUTO 26020KT 9999 -RADZ SCT005/// BKN014/// 10/10 Q1025
Loading
Personal Weather Stations






























Interactive Weather Map New forecast layout! Learn more

10-Day Weather Forecast

Advertisements
Track Severe Weather on mobile